»·PEaware :: N5538Q KSNA-KCRQ

N5538Q :: KSNA-KCRQ

FLIGHT INFORMATION

Flight Status: Arrived
Operator: Privately registered:
United States
More flights under this callsign
Pilot: Anonymous 30902 (30902)
Aircraft: MOONEY M-20 201 202 205 220 ATS MSE
(M20P)
More flights by this aircraft type
Origin: KSNA John Wayne-Orange Co
United States
Destination: KCRQ McClellan-Palomar
United States
More flights between these airports :: More routes between these airports
Route: +V23 OCN
File this flight plan on PilotEdge
Remarks:
Altitude:
(Current/Filed)
5,000ft
Speed:
(Current/Filed)
145kts
Departed: 23-Oct-20 07:23 PM
Arrived: 23-Oct-20 08:00 PM
Distance/Time
Traveled:
44nm/0:36
Distance/Time
To Go:
Arrived

Flight Plot

Page will automatically refresh every two minutes.


Map Options




Map Legend


Flown Route
Filed Route
Departure Airport
Arrival Airport
Navaid (VOR, NDB)
Fix

Horizontal Profiles

Position Reports

Time Latitude Longitude Heading Altitude Ground
Speed
23-Oct-20 19:04 33.672450 -117.867190 208 59ft 0kts
23-Oct-20 19:05 33.672450 -117.867190 208 59ft 0kts
23-Oct-20 19:06 33.672450 -117.867190 208 59ft 0kts
23-Oct-20 19:07 33.672450 -117.867190 208 59ft 0kts
23-Oct-20 19:08 33.672450 -117.867190 208 59ft 0kts
23-Oct-20 19:09 33.672450 -117.867190 208 59ft 0kts
23-Oct-20 19:10 33.672450 -117.867190 208 59ft 0kts
23-Oct-20 19:11 33.672450 -117.867190 208 59ft 0kts
23-Oct-20 19:12 33.672450 -117.867190 208 59ft 0kts
23-Oct-20 19:13 33.672450 -117.867190 208 59ft 0kts
23-Oct-20 19:14 33.672450 -117.867190 208 59ft 0kts
23-Oct-20 19:15 33.672450 -117.867190 208 59ft 0kts
23-Oct-20 19:16 33.672376 -117.867285 243 59ft 1kts
23-Oct-20 19:17 33.673810 -117.867200 3 59ft 9kts
23-Oct-20 19:18 33.677080 -117.865221 29 59ft 14kts
23-Oct-20 19:19 33.679938 -117.863610 309 59ft 0kts
23-Oct-20 19:20 33.679938 -117.863610 309 59ft 0kts
23-Oct-20 19:21 33.680012 -117.864201 230 59ft 14kts
23-Oct-20 19:22 33.663067 -117.875607 219 518ft 85kts
23-Oct-20 19:23 33.641075 -117.885594 204 1378ft 87kts
23-Oct-20 19:24 33.616669 -117.890196 197 2166ft 90kts
23-Oct-20 19:25 33.592697 -117.895227 192 2970ft 87kts
23-Oct-20 19:26 33.571452 -117.896115 168 3798ft 65kts
23-Oct-20 19:27 33.561783 -117.875291 113 4327ft 74kts
23-Oct-20 19:28 33.555629 -117.852187 113 4824ft 73kts
23-Oct-20 19:29 33.547793 -117.824070 112 5016ft 120kts
23-Oct-20 19:30 33.533818 -117.778490 112 5004ft 164kts
23-Oct-20 19:31 33.511476 -117.729251 141 5002ft 176kts
23-Oct-20 19:32 33.476450 -117.687685 129 5002ft 181kts
23-Oct-20 19:33 33.443177 -117.642314 137 5000ft 181kts
23-Oct-20 19:34 33.402091 -117.609438 140 5008ft 181kts
23-Oct-20 19:36 33.366866 -117.566194 137 5008ft 181kts
23-Oct-20 19:37 33.330772 -117.523365 138 5008ft 181kts
23-Oct-20 19:38 33.294704 -117.481144 138 5008ft 181kts
23-Oct-20 19:39 33.258619 -117.439100 138 5008ft 181kts
23-Oct-20 19:40 33.235163 -117.389178 83 5008ft 186kts
23-Oct-20 19:41 33.242218 -117.327848 83 5007ft 186kts
23-Oct-20 19:42 33.249978 -117.266322 83 5007ft 186kts
23-Oct-20 19:43 33.257722 -117.205170 83 5008ft 186kts
23-Oct-20 19:44 33.265407 -117.143874 83 5007ft 186kts
23-Oct-20 19:45 33.273025 -117.082779 83 5010ft 185kts
23-Oct-20 19:46 33.280274 -117.021703 85 5012ft 185kts
23-Oct-20 19:47 33.239488 -117.008908 193 4649ft 187kts
23-Oct-20 19:48 33.188483 -117.020059 192 4125ft 173kts
23-Oct-20 19:49 33.145756 -117.028719 192 4012ft 139kts
23-Oct-20 19:50 33.111697 -117.025184 119 4007ft 133kts
23-Oct-20 19:51 33.131190 -117.007783 307 3987ft 120kts
23-Oct-20 19:51 33.147916 -117.038188 298 3585ft 139kts
23-Oct-20 19:53 33.158339 -117.090371 280 3309ft 134kts
23-Oct-20 19:53 33.152914 -117.127371 259 2950ft 144kts
23-Oct-20 19:55 33.143902 -117.178946 257 1762ft 124kts
23-Oct-20 19:55 33.139879 -117.204048 255 1601ft 81kts
23-Oct-20 19:57 33.135146 -117.234762 261 1061ft 81kts
23-Oct-20 19:57 33.132322 -117.255654 265 663ft 75kts
23-Oct-20 19:58 33.128509 -117.278394 259 334ft 48kts
23-Oct-20 19:59 33.126966 -117.283080 106 334ft 0kts
23-Oct-20 20:00 33.126761 -117.281598 317 334ft 0kts

Navigation Log

Ident Type
Flight plan parsing failed, navigation log unavailable